createdAt,value
2018-07-06T00:01:45.410Z,71.30
2018-07-06T00:04:25.316Z,71.50
2018-07-06T00:07:05.329Z,71.50
2018-07-06T00:09:45.485Z,71.70
2018-07-06T00:12:25.613Z,71.50
2018-07-06T00:15:05.560Z,71.30
2018-07-06T00:17:45.372Z,71.50
2018-07-06T00:20:25.169Z,71.70
2018-07-06T00:23:05.169Z,71.80
2018-07-06T00:25:45.029Z,72.10
2018-07-06T00:28:25.166Z,73.20
2018-07-06T00:31:05.087Z,72.30
2018-07-06T00:33:45.562Z,72.20
2018-07-06T00:36:25.424Z,72.50
2018-07-06T00:39:05.570Z,72.70
2018-07-06T00:41:45.485Z,72.70
2018-07-06T00:44:25.393Z,72.80
2018-07-06T00:47:05.076Z,73.00
2018-07-06T00:49:45.178Z,72.80
2018-07-06T00:52:25.132Z,72.70
2018-07-06T00:55:05.112Z,72.70
2018-07-06T00:57:51.748Z,72.80
2018-07-06T01:00:31.827Z,72.50
2018-07-06T01:03:12.252Z,72.70
2018-07-06T01:05:52.270Z,72.40
2018-07-06T01:08:32.160Z,72.30
2018-07-06T01:11:12.184Z,72.40
2018-07-06T01:13:52.154Z,72.40
2018-07-06T01:16:32.112Z,72.60
2018-07-06T01:19:12.193Z,72.70
2018-07-06T01:21:52.854Z,72.10
2018-07-06T01:24:32.709Z,72.30
2018-07-06T01:27:12.659Z,72.10
2018-07-06T01:29:52.480Z,72.00
2018-07-06T01:32:32.574Z,71.90
2018-07-06T01:35:12.436Z,71.60
2018-07-06T01:37:52.481Z,71.60
2018-07-06T01:40:32.306Z,71.50
2018-07-06T01:43:12.264Z,71.10
2018-07-06T01:45:51.956Z,71.90
2018-07-06T01:48:31.971Z,71.40
2018-07-06T01:51:11.872Z,71.40
2018-07-06T01:53:51.951Z,71.40
2018-07-06T01:56:31.661Z,70.90
2018-07-06T01:59:11.957Z,71.00
2018-07-06T02:01:51.949Z,71.10
2018-07-06T02:04:32.021Z,71.50
2018-07-06T02:07:11.893Z,71.50
2018-07-06T02:09:51.891Z,71.40
2018-07-06T02:12:31.920Z,71.40
2018-07-06T02:15:11.949Z,71.40
2018-07-06T02:17:51.731Z,71.10
2018-07-06T02:20:31.664Z,70.60
2018-07-06T02:23:11.481Z,70.00
2018-07-06T02:25:51.666Z,69.80
2018-07-06T02:28:31.500Z,69.60
2018-07-06T02:31:11.524Z,69.20
2018-07-06T02:33:51.433Z,68.80
2018-07-06T02:36:31.439Z,68.80
2018-07-06T02:39:11.262Z,69.40
2018-07-06T02:41:51.169Z,69.90
2018-07-06T02:44:31.065Z,69.80
2018-07-06T02:47:10.970Z,69.80
2018-07-06T02:49:50.793Z,69.60
2018-07-06T02:52:30.998Z,69.30
2018-07-06T02:55:10.901Z,68.70
2018-07-06T02:57:50.887Z,68.30
2018-07-06T03:00:30.997Z,68.40
2018-07-06T03:03:10.820Z,68.20
2018-07-06T03:05:50.641Z,67.90
2018-07-06T03:08:30.692Z,68.50
2018-07-06T03:11:10.620Z,67.90
2018-07-06T03:13:50.469Z,67.90
2018-07-06T03:16:30.236Z,68.00
2018-07-06T03:19:10.205Z,68.00
2018-07-06T03:21:50.318Z,68.10
2018-07-06T03:24:30.344Z,68.00
2018-07-06T03:27:10.258Z,67.70
2018-07-06T03:29:50.400Z,67.60
2018-07-06T03:32:30.345Z,67.60
2018-07-06T03:35:10.359Z,68.00
2018-07-06T03:37:50.253Z,68.00
2018-07-06T03:40:30.156Z,68.00
2018-07-06T03:43:10.037Z,67.80
2018-07-06T03:45:49.833Z,67.90
2018-07-06T03:48:29.609Z,67.90
2018-07-06T03:51:10.081Z,67.70
2018-07-06T03:53:50.012Z,67.70
2018-07-06T03:56:29.999Z,67.80
2018-07-06T03:59:10.085Z,67.70
2018-07-06T04:01:50.599Z,68.00
2018-07-06T04:04:30.422Z,68.00
2018-07-06T04:07:10.360Z,68.10
2018-07-06T04:09:50.201Z,68.10
2018-07-06T04:12:30.304Z,68.50
2018-07-06T04:15:10.229Z,68.30
2018-07-06T04:17:50.259Z,67.90
2018-07-06T04:20:30.257Z,67.90
2018-07-06T04:23:10.285Z,68.10
2018-07-06T04:25:50.386Z,68.00
2018-07-06T04:28:30.473Z,68.20
2018-07-06T04:31:10.145Z,68.30
2018-07-06T04:33:50.339Z,68.10
2018-07-06T04:36:30.365Z,68.40
2018-07-06T04:39:10.725Z,68.20
2018-07-06T04:41:50.884Z,68.20
2018-07-06T04:44:30.833Z,68.40
2018-07-06T04:47:10.705Z,67.30
2018-07-06T04:49:50.549Z,67.30
2018-07-06T04:52:30.349Z,66.70
2018-07-06T04:55:10.308Z,66.60
2018-07-06T04:57:49.998Z,66.00
2018-07-06T05:00:30.139Z,65.70
2018-07-06T05:03:10.016Z,66.00
2018-07-06T05:05:49.848Z,65.80
2018-07-06T05:08:29.691Z,65.30
2018-07-06T05:11:09.595Z,64.90
2018-07-06T05:13:49.405Z,64.90
2018-07-06T05:16:29.315Z,65.40
2018-07-06T05:19:09.316Z,65.10
2018-07-06T05:24:23.018Z,67.20
2018-07-06T05:27:02.976Z,67.00
2018-07-06T05:29:42.671Z,67.40
2018-07-06T05:32:22.833Z,67.30
2018-07-06T05:35:02.640Z,66.60
2018-07-06T05:37:42.944Z,66.00
2018-07-06T05:40:23.064Z,65.60
2018-07-06T05:43:02.995Z,65.10
2018-07-06T05:45:42.854Z,64.70
2018-07-06T05:48:22.824Z,64.80
2018-07-06T05:51:02.673Z,64.90
2018-07-06T05:53:42.628Z,64.70
2018-07-06T05:56:22.504Z,63.50
2018-07-06T05:59:02.405Z,63.20
2018-07-06T06:01:42.204Z,63.40
2018-07-06T06:04:22.458Z,64.00
2018-07-06T06:07:02.264Z,64.20
2018-07-06T06:09:30.991Z,64.50
2018-07-06T06:11:59.808Z,64.70
2018-07-06T06:14:28.516Z,64.80
2018-07-06T06:16:57.182Z,64.30
2018-07-06T06:19:26.041Z,63.50
2018-07-06T06:21:54.775Z,63.80
2018-07-06T06:24:23.444Z,63.90
2018-07-06T06:26:52.130Z,63.80
2018-07-06T06:29:20.924Z,62.70
2018-07-06T06:31:49.747Z,63.70
2018-07-06T06:34:18.623Z,63.30
2018-07-06T06:36:47.509Z,63.20
2018-07-06T06:39:16.400Z,63.20
2018-07-06T06:41:45.296Z,63.60
2018-07-06T06:44:14.057Z,64.80
2018-07-06T06:46:43.159Z,65.00
2018-07-06T06:49:11.895Z,64.90
2018-07-06T06:54:08.929Z,65.50
2018-07-06T06:56:37.946Z,66.30
2018-07-06T06:59:06.655Z,65.90
2018-07-06T07:01:35.345Z,66.40
2018-07-06T07:04:04.101Z,66.10
2018-07-06T07:06:32.754Z,67.50
2018-07-06T07:09:01.497Z,67.50
2018-07-06T07:11:30.348Z,67.50
2018-07-06T07:13:59.055Z,67.80
2018-07-06T07:16:27.832Z,67.80
2018-07-06T07:18:56.513Z,66.90
2018-07-06T07:21:25.199Z,67.00
2018-07-06T07:23:54.013Z,67.70
2018-07-06T07:28:51.060Z,66.90
2018-07-06T07:31:19.840Z,67.30
2018-07-06T07:33:48.721Z,67.50
2018-07-06T07:36:17.452Z,67.50
2018-07-06T07:38:46.206Z,67.30
2018-07-06T07:41:15.041Z,67.20
2018-07-06T07:43:43.733Z,67.00
2018-07-06T07:46:12.420Z,67.30
2018-07-06T07:48:41.170Z,68.60
2018-07-06T07:51:57.035Z,68.20
2018-07-06T07:54:30.109Z,68.40
2018-07-06T07:57:00.040Z,67.30
2018-07-06T07:59:30.483Z,67.30
2018-07-06T08:02:00.109Z,67.40
2018-07-06T08:04:28.858Z,67.30
2018-07-06T08:06:57.769Z,67.10
2018-07-06T08:09:27.070Z,67.50
2018-07-06T08:11:57.348Z,68.60
2018-07-06T08:14:26.301Z,68.20
2018-07-06T08:16:54.962Z,67.30
2018-07-06T08:19:23.654Z,67.20
2018-07-06T08:21:52.402Z,67.40
2018-07-06T08:24:21.462Z,67.10
2018-07-06T08:26:50.232Z,66.90
2018-07-06T08:29:19.006Z,67.30
2018-07-06T08:31:48.085Z,66.60
2018-07-06T08:34:28.050Z,66.70
2018-07-06T08:37:43.709Z,67.10
2018-07-06T08:40:12.632Z,67.10
2018-07-06T08:45:11.545Z,67.80
2018-07-06T08:47:40.320Z,67.70
2018-07-06T08:50:09.352Z,68.10
2018-07-06T08:52:38.930Z,67.60
2018-07-06T08:55:08.085Z,67.70
2018-07-06T08:57:37.563Z,67.20
2018-07-06T09:00:07.172Z,66.50
2018-07-06T09:02:35.828Z,66.20
2018-07-06T09:05:04.780Z,66.70
2018-07-06T09:10:02.306Z,66.60
2018-07-06T09:12:31.042Z,66.00
2018-07-06T09:15:00.412Z,65.90
2018-07-06T09:17:29.042Z,65.80
2018-07-06T09:19:58.772Z,64.80
2018-07-06T09:22:27.584Z,65.50
2018-07-06T09:24:58.574Z,63.30
2018-07-06T09:27:27.309Z,62.50
2018-07-06T09:29:56.289Z,62.60
2018-07-06T09:32:24.957Z,62.90
2018-07-06T09:34:53.781Z,62.70
2018-07-06T09:37:22.454Z,62.20
2018-07-06T09:39:51.650Z,62.30
2018-07-06T09:42:20.577Z,62.20
2018-07-06T09:44:49.232Z,62.50
2018-07-06T09:47:17.881Z,63.10
2018-07-06T09:52:14.886Z,63.70
2018-07-06T09:54:43.590Z,63.40
2018-07-06T09:57:12.349Z,62.70
2018-07-06T09:59:40.940Z,62.10
2018-07-06T10:02:09.730Z,61.70
2018-07-06T10:04:38.629Z,61.60
2018-07-06T10:07:07.272Z,61.50
2018-07-06T10:09:36.033Z,61.20
2018-07-06T10:12:04.771Z,60.80
2018-07-06T10:14:33.484Z,60.20
2018-07-06T10:17:02.274Z,59.80
2018-07-06T10:19:30.921Z,59.80
2018-07-06T10:21:59.586Z,59.90
2018-07-06T10:26:56.669Z,59.70
2018-07-06T10:29:48.333Z,59.80
2018-07-06T10:32:19.645Z,60.30
2018-07-06T10:34:48.280Z,59.80
2018-07-06T10:37:17.746Z,59.80
2018-07-06T10:39:46.932Z,60.00
2018-07-06T10:42:15.765Z,59.20
2018-07-06T10:44:44.640Z,59.70
2018-07-06T10:47:13.528Z,59.40
2018-07-06T10:49:42.336Z,58.90
2018-07-06T10:52:11.800Z,59.30
2018-07-06T10:54:41.544Z,59.20
2018-07-06T10:57:10.245Z,59.50
2018-07-06T10:59:39.029Z,59.00
2018-07-06T11:02:07.958Z,58.90
2018-07-06T11:04:36.774Z,59.30
2018-07-06T11:07:05.511Z,59.40
2018-07-06T11:09:34.269Z,59.90
2018-07-06T11:12:02.924Z,60.00
2018-07-06T11:14:31.606Z,59.80
2018-07-06T11:17:00.323Z,59.80
2018-07-06T11:19:28.986Z,60.00
2018-07-06T11:21:57.836Z,59.90
2018-07-06T11:24:26.504Z,59.70
2018-07-06T11:26:55.167Z,59.80
2018-07-06T11:29:23.981Z,59.70
2018-07-06T11:31:52.639Z,59.70
2018-07-06T11:34:21.341Z,59.30
2018-07-06T11:36:50.125Z,59.30
2018-07-06T11:39:18.775Z,58.80
2018-07-06T11:41:47.607Z,59.00
2018-07-06T11:44:16.269Z,58.90
2018-07-06T11:46:44.964Z,58.60
2018-07-06T11:49:13.593Z,58.60
2018-07-06T11:51:42.460Z,58.90
2018-07-06T11:54:11.056Z,59.20
2018-07-06T11:56:39.788Z,59.40
2018-07-06T11:59:08.579Z,58.70
2018-07-06T12:01:37.382Z,58.70
2018-07-06T12:04:06.116Z,58.70
2018-07-06T12:06:34.832Z,58.70
2018-07-06T12:09:03.986Z,58.70
2018-07-06T12:11:33.057Z,58.50
2018-07-06T12:14:01.869Z,58.50
2018-07-06T12:16:30.663Z,58.50
2018-07-06T12:18:59.653Z,58.60
2018-07-06T12:21:28.337Z,58.70
2018-07-06T12:23:56.976Z,58.80
2018-07-06T12:26:25.696Z,59.10
2018-07-06T12:28:54.381Z,58.80
2018-07-06T12:31:23.045Z,59.20
2018-07-06T12:33:51.859Z,59.70
2018-07-06T12:36:20.488Z,59.60
2018-07-06T12:38:49.194Z,59.30
2018-07-06T12:41:17.848Z,59.50
2018-07-06T12:43:46.465Z,59.30
2018-07-06T12:46:15.113Z,59.40
2018-07-06T12:48:43.877Z,59.50
2018-07-06T12:51:12.549Z,59.60
2018-07-06T12:53:41.237Z,60.20
2018-07-06T12:56:09.918Z,60.10
2018-07-06T12:58:38.706Z,60.10
2018-07-06T13:01:07.441Z,60.10
2018-07-06T13:03:36.158Z,60.00
2018-07-06T13:06:04.898Z,59.80
2018-07-06T13:08:33.636Z,59.70
2018-07-06T13:11:02.382Z,59.60
2018-07-06T13:13:31.216Z,59.60
2018-07-06T13:15:59.933Z,60.10
2018-07-06T13:18:28.961Z,60.10
2018-07-06T13:20:57.786Z,60.00
2018-07-06T13:23:26.450Z,60.70
2018-07-06T13:25:55.249Z,61.10
2018-07-06T13:28:23.904Z,61.50
2018-07-06T13:30:52.557Z,61.10
2018-07-06T13:33:21.169Z,61.60
2018-07-06T13:35:50.004Z,61.50
2018-07-06T13:40:47.013Z,62.10
2018-07-06T13:43:16.137Z,62.30
2018-07-06T13:45:44.968Z,62.40
2018-07-06T13:48:13.564Z,62.10
2018-07-06T13:50:42.210Z,62.20
2018-07-06T13:53:11.078Z,62.30
2018-07-06T13:55:39.771Z,62.10
2018-07-06T13:58:08.369Z,62.30
2018-07-06T14:00:37.077Z,62.30
2018-07-06T14:03:06.400Z,62.30
2018-07-06T14:05:35.232Z,62.50
2018-07-06T14:08:03.900Z,62.30
2018-07-06T14:10:32.663Z,62.30
2018-07-06T14:13:01.275Z,61.90
2018-07-06T14:15:30.010Z,62.10
2018-07-06T14:20:27.105Z,61.90
2018-07-06T14:22:55.748Z,62.10
2018-07-06T14:25:24.498Z,61.80
2018-07-06T14:27:53.106Z,62.10
2018-07-06T14:30:21.939Z,62.30
2018-07-06T14:32:50.641Z,62.90
2018-07-06T14:35:19.293Z,62.50
2018-07-06T14:37:48.023Z,62.40
2018-07-06T14:40:16.928Z,62.60
2018-07-06T14:42:45.636Z,62.70
2018-07-06T14:45:14.390Z,63.00
2018-07-06T14:47:43.120Z,62.60
2018-07-06T14:50:11.749Z,62.50
2018-07-06T14:52:40.404Z,63.80
2018-07-06T14:55:09.224Z,63.30
2018-07-06T14:57:37.939Z,63.00
2018-07-06T15:00:06.773Z,63.40
2018-07-06T15:02:35.537Z,63.60
2018-07-06T15:05:04.256Z,63.60
2018-07-06T15:07:33.009Z,64.00
2018-07-06T15:10:01.669Z,64.20
2018-07-06T15:12:30.391Z,65.10
2018-07-06T15:14:59.010Z,63.70
2018-07-06T15:17:27.848Z,63.90
2018-07-06T15:19:56.692Z,64.70
2018-07-06T15:22:25.354Z,64.80
2018-07-06T15:27:22.458Z,64.80
2018-07-06T15:29:51.086Z,64.50
2018-07-06T15:32:20.007Z,64.50
2018-07-06T15:34:48.738Z,64.50
2018-07-06T15:37:17.350Z,65.00
2018-07-06T15:39:46.010Z,65.10
2018-07-06T15:42:14.809Z,65.10
2018-07-06T15:44:43.442Z,64.70
2018-07-06T15:47:12.085Z,64.10
2018-07-06T15:49:40.850Z,64.00
2018-07-06T15:52:09.576Z,64.30
2018-07-06T15:54:38.278Z,64.10
2018-07-06T15:57:07.032Z,63.60
2018-07-06T15:59:36.233Z,63.60
2018-07-06T16:02:04.893Z,63.50
2018-07-06T16:04:33.669Z,63.20
2018-07-06T16:07:02.579Z,62.80
2018-07-06T16:09:31.293Z,62.80
2018-07-06T16:12:01.569Z,62.90
2018-07-06T16:14:30.208Z,62.40
2018-07-06T16:16:59.018Z,62.60
2018-07-06T16:19:27.765Z,62.40
2018-07-06T16:21:56.469Z,62.30
2018-07-06T16:24:25.412Z,62.20
2018-07-06T16:26:54.311Z,61.90
2018-07-06T16:29:23.040Z,62.10
2018-07-06T16:31:51.684Z,62.20
2018-07-06T16:34:20.382Z,62.10
2018-07-06T16:36:49.176Z,61.70
2018-07-06T16:39:17.986Z,61.40
2018-07-06T16:41:46.748Z,61.00
2018-07-06T16:44:15.448Z,61.10
2018-07-06T16:46:44.227Z,61.10
2018-07-06T16:49:12.881Z,61.00
2018-07-06T16:51:41.633Z,61.00
2018-07-06T16:54:10.297Z,61.20
2018-07-06T16:56:38.952Z,61.30
2018-07-06T16:59:07.662Z,61.40
2018-07-06T17:01:36.372Z,61.30
2018-07-06T17:04:05.060Z,61.30
2018-07-06T17:06:33.983Z,61.40
2018-07-06T17:09:03.169Z,61.30
2018-07-06T17:11:31.817Z,61.10
2018-07-06T17:14:00.664Z,60.80
2018-07-06T17:16:29.406Z,60.90
2018-07-06T17:18:58.040Z,60.90
2018-07-06T17:21:26.731Z,61.10
2018-07-06T17:23:55.472Z,61.00
2018-07-06T17:26:24.261Z,61.10
2018-07-06T17:28:53.022Z,60.80
2018-07-06T17:31:21.731Z,61.00
2018-07-06T17:33:50.599Z,60.80
2018-07-06T17:36:19.313Z,60.90
2018-07-06T17:38:48.045Z,61.30
2018-07-06T17:41:16.887Z,61.40
2018-07-06T17:43:45.589Z,61.10
2018-07-06T17:46:14.336Z,61.20
2018-07-06T17:48:43.097Z,62.10
2018-07-06T17:51:11.907Z,61.50
2018-07-06T17:53:40.525Z,61.50
2018-07-06T17:56:09.183Z,61.50
2018-07-06T17:58:39.925Z,61.60
2018-07-06T18:01:08.728Z,61.30
2018-07-06T18:03:37.881Z,61.10
2018-07-06T18:06:06.560Z,61.10
2018-07-06T18:08:35.372Z,60.80
2018-07-06T18:11:04.045Z,60.60
2018-07-06T18:13:32.833Z,60.70
2018-07-06T18:16:01.584Z,60.80
2018-07-06T18:18:31.182Z,61.70
2018-07-06T18:21:00.075Z,61.30
2018-07-06T18:25:57.589Z,60.70
2018-07-06T18:28:26.333Z,60.90
2018-07-06T18:30:55.329Z,60.90
2018-07-06T18:33:23.992Z,61.10
2018-07-06T18:35:52.776Z,61.30
2018-07-06T18:38:21.450Z,61.00
2018-07-06T18:40:50.251Z,60.70
2018-07-06T18:43:18.997Z,60.50
2018-07-06T18:45:47.717Z,60.40
2018-07-06T18:48:16.432Z,61.10
2018-07-06T18:50:45.085Z,58.80
2018-07-06T18:53:14.085Z,58.10
2018-07-06T18:55:42.859Z,58.00
2018-07-06T18:58:11.883Z,57.90
2018-07-06T19:00:40.705Z,57.90
2018-07-06T19:03:09.470Z,57.00
2018-07-06T19:05:38.363Z,56.60
2018-07-06T19:08:07.202Z,56.70
2018-07-06T19:10:35.869Z,56.70
2018-07-06T19:15:32.894Z,56.60
2018-07-06T19:18:01.611Z,57.00
2018-07-06T19:20:30.384Z,56.60
2018-07-06T19:22:59.205Z,56.60
2018-07-06T19:25:28.131Z,56.70
2018-07-06T19:27:56.844Z,56.70
2018-07-06T19:30:25.724Z,56.50
2018-07-06T19:32:54.454Z,56.80
2018-07-06T19:37:51.409Z,58.00
2018-07-06T19:40:20.180Z,57.50
2018-07-06T19:42:48.789Z,57.60
2018-07-06T19:45:17.491Z,57.90
2018-07-06T19:47:46.211Z,58.10
2018-07-06T19:50:14.844Z,58.20
2018-07-06T19:52:43.500Z,58.30
2018-07-06T19:55:12.292Z,58.60
2018-07-06T19:57:41.003Z,58.60
2018-07-06T20:00:09.716Z,58.70
2018-07-06T20:02:38.485Z,58.70
2018-07-06T20:05:07.604Z,58.60
2018-07-06T20:07:36.327Z,59.10
2018-07-06T20:10:05.437Z,58.80
2018-07-06T20:12:34.174Z,58.70
2018-07-06T20:15:02.869Z,58.80
2018-07-06T20:17:31.788Z,59.10
2018-07-06T20:20:00.685Z,59.40
2018-07-06T21:06:12.196Z,60.20
2018-07-06T21:08:40.830Z,63.20
2018-07-06T21:11:09.508Z,63.30
2018-07-06T21:13:38.336Z,63.60
2018-07-06T21:16:07.117Z,63.60
2018-07-06T21:18:35.832Z,63.80
2018-07-06T21:21:04.609Z,64.60
2018-07-06T21:23:33.384Z,63.80
2018-07-06T21:26:02.286Z,63.80
2018-07-06T21:28:31.073Z,63.80
2018-07-06T21:30:59.796Z,64.00
2018-07-06T21:33:28.492Z,64.30
2018-07-06T21:35:57.159Z,64.30
2018-07-06T21:38:25.842Z,64.10
2018-07-06T21:40:54.524Z,64.30
2018-07-06T21:43:23.272Z,64.40
2018-07-06T21:45:51.913Z,64.20
2018-07-06T21:48:20.759Z,64.20
2018-07-06T21:50:49.832Z,64.40
2018-07-06T21:53:18.547Z,64.30
2018-07-06T21:55:47.236Z,64.20
2018-07-06T21:58:15.959Z,64.40
2018-07-06T22:00:44.705Z,64.40
2018-07-06T22:03:13.585Z,64.30
2018-07-06T22:05:42.904Z,64.30
2018-07-06T22:08:11.679Z,64.30
2018-07-06T22:10:40.370Z,64.50
2018-07-06T22:13:09.146Z,64.60
2018-07-06T22:15:46.241Z,64.50
2018-07-06T22:18:18.620Z,64.50
2018-07-06T22:20:48.447Z,64.50
2018-07-06T22:23:17.497Z,64.70
2018-07-06T22:25:46.253Z,64.70
2018-07-06T22:28:14.921Z,64.30
2018-07-06T22:30:43.691Z,64.30
2018-07-06T22:33:12.387Z,64.60
2018-07-06T22:35:41.069Z,64.70
2018-07-06T22:38:09.763Z,64.30
2018-07-06T22:40:38.520Z,64.60
2018-07-06T22:43:07.317Z,64.80
2018-07-06T22:45:35.967Z,64.70
2018-07-06T22:48:04.697Z,64.60
2018-07-06T22:50:33.343Z,64.50
2018-07-06T22:53:02.148Z,64.50
2018-07-06T22:55:30.864Z,64.70
2018-07-06T22:57:59.612Z,65.00
2018-07-06T23:00:28.362Z,65.00
2018-07-06T23:03:03.459Z,65.40
2018-07-06T23:05:32.187Z,65.30
2018-07-06T23:08:00.895Z,65.00
2018-07-06T23:10:29.852Z,64.50
2018-07-06T23:12:58.622Z,64.40
2018-07-06T23:15:27.388Z,63.90
2018-07-06T23:17:56.141Z,63.50
2018-07-06T23:20:24.857Z,63.60
2018-07-06T23:23:04.427Z,63.20
2018-07-06T23:25:34.445Z,62.80
2018-07-06T23:28:03.336Z,62.70
2018-07-06T23:30:32.028Z,62.60
2018-07-06T23:33:01.593Z,62.60
2018-07-06T23:35:30.397Z,62.70
2018-07-06T23:37:59.092Z,62.60
2018-07-06T23:40:27.764Z,62.60
2018-07-06T23:42:56.424Z,62.50
2018-07-06T23:45:25.365Z,62.20
2018-07-06T23:47:54.186Z,61.50
2018-07-06T23:50:23.456Z,61.10
2018-07-06T23:52:52.168Z,61.30
2018-07-06T23:55:21.110Z,60.90
2018-07-06T23:57:50.336Z,60.80
